Latest Weather Observations for Wangaratta

IDV60801

Issued at 10:31 am EDT Sunday 29 March 2015 (issued every 30 minutes, with the page automatically refreshed every 10 minutes)

About weather observations | Map of weather stations | Latest weather observations for VIC | Other Formats
Station Details ID: 082138 Name: WANGARATTA AERO Lat: -36.42 Lon: 146.31 Height: 152.6 m
Data from the previous 72 hours. | See also: Recent months at Wangaratta
Date/Time
EDT
Temp
°C
App
Temp
°C
Dew
Point
Rel
Hum
%
Delta-T
°C
Wind Press
QNH
hPa
Press
MSL
hPa
Rain
since 9 am
mm
Dir
 
Spd
km/h
Gust
km/h
Spd
kts
Gust
kts
29/10:30am 15.8 14.3 4.8 48 5.2 ESE 2 7 1 4 1024.5 1024.2 0.0
29/10:00am 14.1 11.8 4.9 54 4.3 SSE 6 11 3 6 1024.5 1024.2 0.0
29/09:30am 12.3 10.0 5.0 61 3.4 SE 6 9 3 5 1024.5 1024.2 0.0
29/09:00am 9.9 8.0 5.1 72 2.2 SE 4 7 2 4 1024.1 1023.7 0.0
29/08:30am 7.1 5.9 4.8 85 1.0 CALM 0 6 0 3 1023.9 1023.5 0.0
29/08:00am 4.6 2.8 3.6 93 0.4 S 2 7 1 4 1023.7 1023.3 0.0
29/07:30am 3.3 1.3 2.3 93 0.4 SW 2 7 1 4 1023.4 1023.0 0.0
29/07:00am 3.6 2.0 2.3 91 0.5 CALM 0 0 0 0 1022.8 1022.4 0.0
29/06:30am 3.9 2.3 2.3 89 0.6 CALM 0 0 0 0 1022.5 1022.1 0.0
29/06:00am 3.9 2.3 2.3 89 0.6 CALM 0 0 0 0 1022.2 1021.8 0.0
29/05:30am 4.3 1.6 2.8 90 0.6 S 6 6 3 3 1021.8 1021.4 0.0
29/05:00am 3.8 0.9 1.7 86 0.8 SSW 6 6 3 3 1021.8 1021.4 0.0
29/04:30am 4.9 3.3 2.4 84 1.0 CALM 0 0 0 0 1021.6 1021.2 0.0
29/04:00am 5.3 3.7 2.7 83 1.1 CALM 0 0 0 0 1021.5 1021.1 0.0
29/03:30am 5.5 2.8 2.7 82 1.2 SSE 6 6 3 3 1021.6 1021.2 0.0
29/03:00am 5.8 3.2 3.1 83 1.1 SW 6 6 3 3 1021.8 1021.4 0.0
29/02:30am 5.7 2.9 1.8 76 1.6 SSW 6 7 3 4 1021.9 1021.5 0.0
29/02:00am 6.5 3.5 2.2 74 1.8 SSE 7 9 4 5 1022.0 1021.6 0.0
29/01:30am 7.4 4.6 3.1 74 1.8 SSE 7 9 4 5 1022.3 1021.9 0.0
29/01:00am 7.1 5.1 2.2 71 2.0 W 2 7 1 4 1022.4 1022.0 0.0
29/12:30am 7.5 5.8 1.8 67 2.3 CALM 0 0 0 0 1022.4 1022.0 0.0
29/12:00am 9.2 6.9 2.8 64 2.7 ENE 4 7 2 4 1022.2 1021.8 0.0
 
Date/Time
EDT
Temp
°C
App
Temp
°C
Dew
Point
Rel
Hum
%
Delta-T
°C
Wind Press
QNH
hPa
Press
MSL
hPa
Rain
since 9 am
mm
Dir
 
Spd
km/h
Gust
km/h
Spd
kts
Gust
kts
28/11:30pm 8.1 5.1 0.8 60 2.9 SE 6 9 3 5 1022.2 1021.8 0.0
28/11:00pm 9.2 7.5 1.9 60 3.1 CALM 0 0 0 0 1022.1 1021.7 0.0
28/10:30pm 9.8 7.3 1.5 56 3.5 ENE 4 7 2 4 1022.0 1021.6 0.0
28/10:00pm 11.6 9.1 1.8 51 4.2 NNE 4 7 2 4 1022.1 1021.7 0.0
28/09:30pm 12.2 10.5 1.8 49 4.5 CALM 0 0 0 0 1021.9 1021.5 0.0
28/09:00pm 13.0 10.2 2.0 47 4.8 WSW 6 9 3 5 1021.6 1021.2 0.0
28/08:30pm 14.0 12.4 2.3 45 5.2 CALM 0 0 0 0 1021.4 1021.0 0.0
28/08:00pm 16.3 15.0 4.0 44 5.7 CALM 0 0 0 0 1021.1 1020.7 0.0
28/07:30pm 17.7 16.1 2.5 36 7.0 CALM 0 2 0 1 1021.2 1020.8 0.0
28/07:00pm 20.5 17.2 0.4 26 9.0 N 7 7 4 4 1021.0 1020.6 0.0
28/06:30pm 21.3 18.9 -0.1 24 9.6 SSW 2 6 1 3 1020.9 1020.5 0.0
28/06:00pm 22.5 19.1 -0.3 22 10.3 S 7 13 4 7 1020.8 1020.4 0.0
28/05:30pm 22.1 19.7 0.0 23 10.0 SSW 2 7 1 4 1020.9 1020.5 0.0
28/05:00pm 22.1 18.3 -0.6 22 10.1 ENE 9 17 5 9 1020.9 1020.5 0.0
28/04:30pm 22.0 17.9 -0.1 23 10.0 SE 11 19 6 10 1021.1 1020.7 0.0
28/04:00pm 22.2 18.8 -0.5 22 10.2 NE 7 11 4 6 1021.3 1020.9 0.0
28/03:30pm 22.3 19.2 0.2 23 10.1 SSW 6 11 3 6 1021.5 1021.1 0.0
28/03:00pm 21.4 17.0 0.6 25 9.4 SE 13 19 7 10 1022.0 1021.6 0.0
28/02:30pm 21.3 18.1 1.0 26 9.3 E 7 13 4 7 1022.4 1022.0 0.0
28/02:00pm 20.0 17.0 0.5 27 8.7 ENE 6 15 3 8 1022.7 1022.3 0.0
28/01:30pm 19.8 16.9 1.7 30 8.3 S 6 13 3 7 1023.3 1022.9 0.0
28/01:00pm 18.5 15.4 1.5 32 7.7 W 7 11 4 6 1023.6 1023.2 0.0
28/12:30pm 18.6 15.3 2.4 34 7.5 W 9 17 5 9 1024.3 1024.0 0.0
28/12:00pm 18.2 14.9 2.5 35 7.2 NNW 9 15 5 8 1024.7 1024.4 0.0
28/11:30am 17.4 14.6 3.3 39 6.6 NNE 7 13 4 7 1024.9 1024.6 0.0
28/11:00am 16.1 12.6 3.5 43 5.8 SE 11 17 6 9 1025.1 1024.8 0.0
28/10:30am 14.5 11.5 3.9 49 4.9 SE 9 19 5 10 1025.4 1025.0 0.0
28/10:00am 12.9 10.4 4.8 58 3.7 ESE 7 9 4 5 1025.7 1025.3 0.0
28/09:30am 10.7 8.5 5.5 70 2.4 SSW 6 9 3 5 1025.6 1025.2 0.0
28/09:00am 8.9 6.9 6.2 83 1.2 S 6 7 3 4 1025.1 1024.8 0.0
28/08:30am 6.3 4.9 5.7 96 0.3 SW 2 7 1 4 1024.9 1024.6 0.0
28/08:00am 3.9 2.1 3.3 96 0.2 SSE 2 6 1 3 1024.7 1024.4 0.0
28/07:30am 3.4 1.9 2.8 96 0.2 CALM 0 0 0 0 1024.6 1024.3 0.0
28/07:00am 2.2 -1.3 1.3 94 0.3 WSW 9 11 5 6 1024.5 1024.2 0.0
28/06:30am 3.9 0.7 3.0 94 0.4 SE 9 9 5 5 1024.1 1023.7 0.0
28/06:00am 4.2 1.4 3.2 93 0.4 ESE 7 9 4 5 1024.0 1023.6 0.0
28/05:30am 5.3 2.7 4.0 91 0.6 SE 7 9 4 5 1023.7 1023.3 0.0
28/05:00am 6.1 3.5 4.4 89 0.7 SSE 7 9 4 5 1023.6 1023.2 0.0
28/04:30am 6.4 3.5 4.9 90 0.7 SE 9 11 5 6 1023.4 1023.0 0.0
28/04:00am 5.4 2.8 3.1 85 1.0 ESE 6 9 3 5 1023.4 1023.0 0.0
28/03:30am 6.2 3.2 3.9 85 1.0 E 9 13 5 7 1023.3 1022.9 0.0
28/03:00am 9.4 6.7 5.4 76 1.8 SSW 9 11 5 6 1023.5 1023.1 0.0
28/02:30am 9.5 5.7 5.9 78 1.7 SW 15 19 8 10 1023.5 1023.1 0.0
28/02:00am 8.8 5.7 5.4 79 1.5 SW 11 15 6 8 1023.7 1023.3 0.0
28/01:30am 9.5 6.5 5.9 78 1.7 SW 11 13 6 7 1023.8 1023.4 0.0
28/01:00am 9.3 5.9 5.9 79 1.6 SW 13 17 7 9 1023.8 1023.4 0.0
28/12:30am 7.7 4.4 4.8 82 1.3 SW 11 13 6 7 1024.1 1023.7 0.0
28/12:00am 10.1 7.5 6.3 77 1.8 S 9 11 5 6 1024.3 1024.0 0.0
 
Date/Time
EDT
Temp
°C
App
Temp
°C
Dew
Point
Rel
Hum
%
Delta-T
°C
Wind Press
QNH
hPa
Press
MSL
hPa
Rain
since 9 am
mm
Dir
 
Spd
km/h
Gust
km/h
Spd
kts
Gust
kts
27/11:30pm 10.2 7.8 5.4 72 2.2 S 7 9 4 5 1024.3 1024.0 0.0
27/11:00pm 11.3 7.8 5.6 68 2.6 SW 13 15 7 8 1024.3 1024.0 0.0
27/10:30pm 11.2 8.1 5.5 68 2.6 SW 11 13 6 7 1024.2 1023.8 0.0
27/10:00pm 11.0 7.5 5.3 68 2.6 WSW 13 13 7 7 1024.0 1023.6 0.0
27/09:30pm 11.2 8.4 5.3 67 2.7 SW 9 11 5 6 1023.9 1023.5 0.0
27/09:00pm 11.4 8.6 5.3 66 2.8 SW 9 11 5 6 1023.6 1023.2 0.0
27/08:30pm 12.7 9.5 5.1 60 3.5 SW 11 13 6 7 1023.2 1022.8 0.0
27/08:00pm 14.3 10.8 5.4 55 4.2 SW 13 17 7 9 1022.9 1022.5 0.0
27/07:30pm 15.7 11.9 5.6 51 4.9 S 15 20 8 11 1022.6 1022.2 0.0
27/07:00pm 16.6 11.8 5.6 48 5.3 SSW 20 30 11 16 1022.3 1021.9 0.0
27/06:30pm 17.1 11.5 5.4 46 5.7 SSW 24 30 13 16 1022.2 1021.8 0.0
27/06:00pm 17.8 12.1 5.1 43 6.1 SSW 24 32 13 17 1021.9 1021.5 0.0
27/05:30pm 18.0 13.1 5.2 43 6.2 SSW 20 32 11 17 1021.7 1021.3 0.0
27/05:00pm 18.8 12.9 5.6 42 6.5 SSW 26 37 14 20 1021.8 1021.4 0.0
27/04:30pm 18.7 13.2 5.9 43 6.3 SSW 24 33 13 18 1021.8 1021.4 0.0
27/04:00pm 18.8 13.5 4.9 40 6.7 SW 22 30 12 16 1021.9 1021.5 0.0
27/03:30pm 18.7 12.5 4.5 39 6.8 SW 26 32 14 17 1022.0 1021.6 0.0
27/03:00pm 18.3 13.5 4.8 41 6.5 SW 19 24 10 13 1022.2 1021.8 0.0
27/02:30pm 17.8 11.3 4.7 42 6.3 SW 28 37 15 20 1022.4 1022.0 0.0
27/02:00pm 18.5 12.4 5.0 41 6.5 SW 26 35 14 19 1022.6 1022.2 0.0
27/01:30pm 19.1 13.3 4.5 38 7.1 SW 24 37 13 20 1022.7 1022.3 0.0
27/01:00pm 19.4 12.8 4.3 37 7.3 WSW 28 37 15 20 1022.9 1022.5 0.0
27/12:30pm 18.6 12.8 6.1 44 6.2 WSW 26 37 14 20 1023.4 1023.0 0.0
27/12:00pm 18.3 12.3 5.5 43 6.2 SW 26 35 14 19 1023.5 1023.1 0.0
27/11:30am 17.0 12.5 6.8 51 5.1 WSW 20 32 11 17 1023.6 1023.2 0.0
27/11:00am 16.8 12.4 7.4 54 4.7 WSW 20 32 11 17 1023.6 1023.2 0.0
27/10:30am 15.2 11.1 7.7 61 3.8 WSW 19 28 10 15 1023.7 1023.3 0.0
27/10:00am 13.8 10.1 8.0 68 2.9 W 17 28 9 15 1023.7 1023.3 0.0
27/09:30am 13.2 9.4 7.6 69 2.8 W 17 26 9 14 1023.7 1023.3 0.0
27/09:00am 12.6 10.0 7.7 72 2.4 WNW 11 19 6 10 1023.3 1022.9 0.0
27/08:30am 11.4 8.0 7.7 78 1.8 WNW 15 20 8 11 1023.1 1022.7 0.0
27/08:00am 10.6 7.2 7.7 82 1.4 WNW 15 24 8 13 1023.1 1022.7 0.0
27/07:30am 9.4 4.8 6.7 83 1.3 WNW 20 24 11 13 1022.7 1022.3 0.0
27/07:00am 9.9 5.9 6.8 81 1.5 W 17 24 9 13 1022.4 1022.0 0.0
27/06:30am 9.5 6.1 6.0 79 1.6 WNW 13 17 7 9 1021.9 1021.5 0.0
27/06:00am 10.6 8.5 6.6 76 1.9 W 7 9 4 5 1021.7 1021.3 0.0
27/05:30am 10.0 7.8 6.0 76 1.9 WNW 7 13 4 7 1021.6 1021.2 0.0
27/05:00am 10.7 6.2 6.1 73 2.1 WNW 19 24 10 13 1021.2 1020.8 0.0
27/04:30am 10.9 6.3 5.7 70 2.4 WNW 19 28 10 15 1021.5 1021.1 0.0
27/04:00am 11.5 6.4 5.8 68 2.7 WNW 22 33 12 18 1021.5 1021.1 0.0
27/03:30am 11.4 6.5 5.3 66 2.8 NW 20 30 11 16 1021.6 1021.2 0.0
27/03:00am 12.2 7.9 5.1 62 3.3 NW 17 22 9 12 1021.7 1021.3 0.0
27/02:30am 12.3 9.5 5.2 62 3.3 NW 9 13 5 7 1021.8 1021.4 0.0
27/02:00am 11.7 8.8 4.7 62 3.2 NW 9 15 5 8 1021.8 1021.4 0.0
27/01:30am 12.3 8.7 4.8 60 3.5 W 13 20 7 11 1021.7 1021.3 0.0
27/01:00am 12.7 8.6 4.4 57 3.8 W 15 24 8 13 1021.8 1021.4 0.0
27/12:30am 13.4 8.3 4.3 54 4.2 WNW 20 32 11 17 1021.5 1021.1 0.0
27/12:00am 13.5 8.4 3.3 50 4.6 NW 19 28 10 15 1021.4 1021.0 0.0
 
Date/Time
EDT
Temp
°C
App
Temp
°C
Dew
Point
Rel
Hum
%
Delta-T
°C
Wind Press
QNH
hPa
Press
MSL
hPa
Rain
since 9 am
mm
Dir
 
Spd
km/h
Gust
km/h
Spd
kts
Gust
kts
26/11:30pm 13.6 8.8 2.5 47 4.9 WNW 17 26 9 14 1021.6 1021.2 0.0
26/11:00pm 13.9 8.5 2.2 45 5.2 WNW 20 28 11 15 1021.4 1021.0 0.0
26/10:30pm 14.7 7.6 1.3 40 5.9 WNW 28 41 15 22 1021.4 1021.0 0.0
26/10:00pm 14.5 8.9 1.1 40 5.8 WNW 20 35 11 19 1021.3 1020.9 0.0
26/09:30pm 15.0 8.1 0.4 37 6.3 WNW 26 41 14 22 1021.1 1020.7 0.0
26/09:00pm 14.6 8.8 -0.3 36 6.3 WNW 20 30 11 16 1021.1 1020.7 0.0
26/08:30pm 14.5 9.1 -1.2 34 6.5 WNW 17 24 9 13 1020.8 1020.4 0.0
26/08:00pm 15.3 9.3 -1.3 32 6.9 WNW 20 28 11 15 1020.4 1020.0 0.0
26/07:30pm 16.1 9.7 -1.5 30 7.3 W 22 30 12 16 1020.2 1019.8 0.0
26/07:00pm 16.3 10.5 -1.7 29 7.5 WNW 19 28 10 15 1019.9 1019.5 0.0
26/06:30pm 17.0 9.0 -2.1 27 7.9 W 30 43 16 23 1019.9 1019.5 0.0
26/06:00pm 17.0 9.4 -2.1 27 7.9 W 28 39 15 21 1019.8 1019.4 0.0
26/05:30pm 18.1 9.7 -2.2 25 8.5 WNW 32 44 17 24 1019.6 1019.2 0.0
26/05:00pm 18.5 11.2 -3.0 23 8.9 WSW 26 39 14 21 1019.4 1019.0 0.0
26/04:34pm 18.5 10.1 -2.4 24 8.7 W 32 48 17 26 1019.2 1018.8 0.0
26/04:30pm 17.9 8.9 -2.9 24 8.6 W 35 48 19 26 1019.1 1018.7 0.0
26/04:16pm 19.0 10.6 -2.6 23 9.0 WNW 32 57 17 31 1019.0 1018.6 0.0
26/04:00pm 18.8 10.8 -2.7 23 8.9 W 30 39 16 21 1019.2 1018.8 0.0
26/03:30pm 19.5 12.4 -1.0 25 8.9 WNW 26 43 14 23 1019.2 1018.8 0.0
26/03:00pm 18.7 10.7 -2.3 24 8.8 WNW 30 41 16 22 1019.6 1019.2 0.0
26/02:30pm 17.2 10.1 -1.0 29 7.7 WNW 26 39 14 21 1019.7 1019.3 0.0
26/02:00pm 18.3 11.7 -0.5 28 8.1 W 24 35 13 19 1019.9 1019.5 0.0
26/01:30pm 18.1 11.7 1.2 32 7.6 W 24 33 13 18 1019.9 1019.5 0.0
26/01:00pm 16.7 9.4 -0.1 32 7.2 W 28 44 15 24 1020.1 1019.7 0.0
26/12:30pm 16.2 9.7 0.3 34 6.9 W 24 35 13 19 1020.4 1020.0 0.0
26/12:00pm 16.2 8.7 1.1 36 6.6 W 30 41 16 22 1020.5 1020.1 0.0
26/11:30am 15.4 8.4 1.9 40 6.0 W 28 35 15 19 1020.5 1020.1 0.0
26/11:00am 15.1 8.8 3.6 46 5.3 W 26 33 14 18 1020.5 1020.1 0.0

Other Formats:

Comma delimited format used in spreadsheet applications
http://www.bom.gov.au/fwo/IDV60801/IDV60801.94889.axf

JavaScript Object Notation format (JSON) in row-major order
http://www.bom.gov.au/fwo/IDV60801/IDV60801.94889.json